Time;durP1;ratioP1;P1;durP2;ratioP2;P2;SDS_P1;SDS_P2;PMS_P1;PMS_P2;Temp;Humidity;BMP_temperature;BMP_pressure;BME280_temperature;BME280_humidity;BME280_pressure;Samples;Min_cycle;Max_cycle;Signal;HPM_P1;HPM_P2
2021/08/28 06:10:53;;;;;;;17.30;12.70;;;;;;;19.32;73.15;99970.62;1737403;81;21663;-36
2021/08/28 06:13:37;;;;;;;19.45;13.40;;;;;;;19.39;73.21;99973.88;1696359;82;21499;-32
2021/08/28 06:16:08;;;;;;;20.80;14.03;;;;;;;19.47;73.64;99970.42;1687220;83;21614;-33
2021/08/28 06:18:35;;;;;;;20.15;13.40;;;;;;;19.60;73.19;99970.84;1694519;84;21112;-33
2021/08/28 06:21:03;;;;;;;18.00;12.60;;;;;;;19.74;73.20;99982.18;1694522;83;21193;-38
2021/08/28 06:23:29;;;;;;;20.32;13.35;;;;;;;19.88;72.58;99981.11;1686588;84;21152;-34
2021/08/28 06:26:15;;;;;;;19.05;12.73;;;;;;;20.01;71.80;99974.83;1687516;82;21072;-38
2021/08/28 06:28:42;;;;;;;21.80;13.05;;;;;;;20.16;71.64;99978.97;1707789;81;21057;-39
2021/08/28 06:31:09;;;;;;;19.57;13.72;;;;;;;20.29;71.60;99974.44;1699115;84;21666;-38
2021/08/28 06:33:35;;;;;;;21.95;12.90;;;;;;;20.41;71.24;99976.11;1692676;84;21031;-39
2021/08/28 06:36:03;;;;;;;15.53;12.05;;;;;;;20.54;71.50;99976.43;1682674;83;21596;-38
2021/08/28 06:38:48;;;;;;;21.70;13.68;;;;;;;20.69;71.15;99973.52;1684263;83;21565;-39
2021/08/28 06:41:19;;;;;;;16.07;12.18;;;;;;;20.84;71.18;99980.78;1646712;82;21072;-33
2021/08/28 06:44:04;;;;;;;24.75;12.75;;;;;;;20.98;70.13;99974.80;1703333;83;21033;-34
2021/08/28 06:46:33;;;;;;;18.10;10.95;;;;;;;21.10;70.39;99978.66;1675403;83;21085;-38
2021/08/28 06:49:19;;;;;;;21.35;12.50;;;;;;;21.19;69.24;99976.42;1738276;80;21053;-33
2021/08/28 06:52:05;;;;;;;20.10;11.38;;;;;;;21.31;69.23;99977.66;1723924;81;21108;-37
2021/08/28 06:54:50;;;;;;;20.12;11.53;;;;;;;21.44;68.50;99980.56;1719480;82;21084;-32
2021/08/28 06:57:35;;;;;;;16.27;10.50;;;;;;;21.55;67.91;99978.23;1716228;81;21597;-33
2021/08/28 07:00:22;;;;;;;15.60;9.50;;;;;;;21.64;66.72;99980.92;1711368;82;21108;-39
2021/08/28 07:03:08;;;;;;;19.20;10.80;;;;;;;21.69;66.96;99983.73;1752963;80;21069;-38
2021/08/28 07:05:35;;;;;;;19.85;10.03;;;;;;;21.77;66.12;99985.53;1738507;81;21199;-39
2021/08/28 07:08:04;;;;;;;12.35;9.35;;;;;;;21.87;66.13;99979.75;1719152;82;21591;-39
2021/08/28 07:10:31;;;;;;;15.48;9.78;;;;;;;22.00;65.73;99979.50;1719034;82;21056;-39
2021/08/28 07:13:00;;;;;;;15.98;10.32;;;;;;;22.12;65.36;99980.69;1726219;81;21197;-34
2021/08/28 07:15:30;;;;;;;17.25;10.65;;;;;;;22.21;64.34;99975.75;1715383;82;21642;-33
2021/08/28 07:17:57;;;;;;;15.85;10.53;;;;;;;22.30;64.78;99967.24;1691331;82;21981;-39
2021/08/28 07:20:24;;;;;;;17.87;11.12;;;;;;;22.41;64.68;99977.33;1719485;82;21072;-33
2021/08/28 07:22:51;;;;;;;13.85;8.78;;;;;;;22.54;64.37;99985.05;1689496;81;21100;-33
2021/08/28 07:25:22;;;;;;;11.85;9.55;;;;;;;22.68;64.47;99982.12;1711403;82;21357;-39
2021/08/28 07:27:49;;;;;;;15.30;8.90;;;;;;;22.79;62.73;99985.06;1718278;82;21131;-39
2021/08/28 07:30:20;;;;;;;12.73;9.58;;;;;;;22.82;62.07;99984.40;1706916;82;21075;-39
2021/08/28 07:32:48;;;;;;;10.60;8.60;;;;;;;22.87;63.04;99980.63;1724883;81;22078;-33
2021/08/28 07:35:14;;;;;;;9.88;8.88;;;;;;;22.92;62.88;99978.13;1692246;82;21056;-33
2021/08/28 07:37:41;;;;;;;9.95;7.87;;;;;;;23.03;62.73;99985.53;1749042;81;21575;-39
2021/08/28 07:40:09;;;;;;;9.53;8.28;;;;;;;23.07;62.10;99979.05;1727174;81;21084;-39
2021/08/28 07:42:36;;;;;;;12.43;8.48;;;;;;;23.12;62.02;99975.66;1698351;82;21135;-39
2021/08/28 07:45:04;;;;;;;11.05;7.75;;;;;;;23.19;61.39;99974.83;1721732;82;21553;-39
2021/08/28 07:47:32;;;;;;;11.78;7.80;;;;;;;23.23;61.60;99971.05;1721067;82;21172;-39
2021/08/28 07:50:01;;;;;;;11.28;7.97;;;;;;;23.33;62.36;99973.58;1738490;80;21598;-39
2021/08/28 07:52:28;;;;;;;8.23;7.42;;;;;;;23.42;62.60;99965.02;1745870;80;21017;-39
2021/08/28 07:54:55;;;;;;;11.73;7.78;;;;;;;23.50;62.08;99964.11;1737884;80;21025;-33
2021/08/28 07:57:23;;;;;;;9.98;7.37;;;;;;;23.57;62.21;99963.27;1717949;82;21556;-39
2021/08/28 07:59:51;;;;;;;8.50;7.00;;;;;;;23.66;62.24;99964.11;1735795;81;21525;-34
2021/08/28 08:02:18;;;;;;;8.18;6.97;;;;;;;23.77;63.20;99971.46;1727495;80;21064;-34
2021/08/28 08:04:44;;;;;;;9.35;7.92;;;;;;;23.85;62.36;99979.41;1737637;80;21572;-33
2021/08/28 08:07:29;;;;;;;10.88;7.15;;;;;;;23.77;62.54;99987.48;1731531;81;21616;-34
2021/08/28 08:09:56;;;;;;;7.95;7.15;;;;;;;23.60;63.20;99985.80;1718374;82;21061;-34
2021/08/28 08:12:43;;;;;;;10.35;7.60;;;;;;;23.52;64.36;99980.89;1716901;82;21041;-40
2021/08/28 08:15:16;;;;;;;8.38;7.10;;;;;;;23.55;65.16;99977.20;1714244;82;21072;-39
2021/08/28 08:18:02;;;;;;;7.75;6.60;;;;;;;23.66;64.76;99981.47;1717708;82;21096;-34
2021/08/28 08:20:48;;;;;;;7.12;6.47;;;;;;;23.74;64.08;99982.34;1718004;82;21597;-34
2021/08/28 08:23:26;;;;;;;9.10;6.20;;;;;;;23.75;64.11;99970.22;1652984;84;21106;-39
2021/08/28 08:26:09;;;;;;;7.40;6.15;;;;;;;23.82;63.83;99970.71;1650121;85;21075;-34
2021/08/28 08:28:38;;;;;;;8.00;6.35;;;;;;;23.92;64.79;99972.37;1615561;86;21126;-40
2021/08/28 08:31:22;;;;;;;10.93;7.08;;;;;;;24.05;63.92;99981.34;1659106;85;21049;-34
2021/08/28 08:33:49;;;;;;;7.95;6.45;;;;;;;24.15;63.87;99976.69;1665572;84;21478;-33
2021/08/28 08:36:18;;;;;;;7.05;6.35;;;;;;;24.23;62.80;99972.20;1678522;83;21006;-34
2021/08/28 08:38:45;;;;;;;9.18;6.60;;;;;;;24.29;63.31;99975.83;1663927;84;21554;-34
2021/08/28 08:41:13;;;;;;;7.15;5.80;;;;;;;24.23;62.28;99970.87;1677335;84;21099;-33
2021/08/28 08:43:44;;;;;;;8.33;6.33;;;;;;;24.26;63.37;99977.38;1669939;85;21091;-34
2021/08/28 08:46:12;;;;;;;8.45;5.90;;;;;;;24.26;63.37;99977.38;1677548;84;20994;-33
2021/08/28 08:48:41;;;;;;;7.90;7.08;;;;;;;24.29;62.90;99977.17;1675024;84;21625;-34
2021/08/28 08:51:08;;;;;;;7.10;6.40;;;;;;;24.13;62.80;99969.73;1653069;86;21031;-35
2021/08/28 08:53:35;;;;;;;7.30;5.97;;;;;;;24.13;62.80;99969.73;1663796;85;21085;-34
2021/08/28 08:56:07;;;;;;;8.75;6.53;;;;;;;24.09;63.71;99976.22;1662436;85;21018;-40
2021/08/28 08:58:34;;;;;;;8.73;6.35;;;;;;;24.05;64.21;99974.19;1607792;86;21131;-34
2021/08/28 09:01:04;;;;;;;7.97;6.45;;;;;;;24.03;64.97;99969.91;1720201;81;21024;-40
2021/08/28 09:03:37;;;;;;;8.05;7.08;;;;;;;24.08;64.22;99974.02;1715522;82;20997;-40
2021/08/28 09:06:05;;;;;;;8.00;6.78;;;;;;;24.08;65.19;99970.02;1726251;81;21033;-35
2021/08/28 09:08:37;;;;;;;7.27;6.30;;;;;;;24.14;66.18;99973.64;1718576;82;21024;-40
2021/08/28 09:11:03;;;;;;;9.43;6.78;;;;;;;24.26;65.98;99973.37;1722897;82;21306;-40
2021/08/28 09:13:31;;;;;;;7.87;6.97;;;;;;;24.35;66.74;99969.28;1711678;82;21108;-40
2021/08/28 09:16:02;;;;;;;7.58;6.55;;;;;;;24.35;66.74;99969.28;1736493;81;21063;-41
2021/08/28 09:18:32;;;;;;;8.53;7.17;;;;;;;24.60;67.19;99968.15;1727888;81;21157;-34
2021/08/28 09:20:59;;;;;;;11.78;7.67;;;;;;;24.60;67.19;99968.15;1723700;81;21068;-40
2021/08/28 09:23:26;;;;;;;7.92;6.92;;;;;;;24.81;64.16;99977.08;1717655;82;21076;-34
2021/08/28 09:25:53;;;;;;;8.20;7.17;;;;;;;24.85;63.99;99979.95;1725198;81;21496;-33
2021/08/28 09:28:33;;;;;;;8.18;7.37;;;;;;;24.86;64.15;99977.66;1717791;83;21108;-40
2021/08/28 09:31:02;;;;;;;7.85;7.05;;;;;;;24.84;64.52;99972.89;1718425;82;21452;-34
2021/08/28 09:33:34;;;;;;;10.30;7.37;;;;;;;24.91;64.75;99975.55;1717336;82;21121;-40
2021/08/28 09:35:59;;;;;;;7.87;6.97;;;;;;;24.98;65.00;99971.51;1720887;82;21253;-40
2021/08/28 09:38:26;;;;;;;9.53;7.62;;;;;;;25.06;63.40;99973.74;1713113;82;21084;-40
2021/08/28 09:40:59;;;;;;;9.63;7.80;;;;;;;25.07;62.48;99969.63;1680807;83;21168;-40
2021/08/28 09:43:27;;;;;;;9.90;8.88;;;;;;;25.13;64.63;99972.38;1664646;84;21633;-40
2021/08/28 09:45:54;;;;;;;8.25;7.45;;;;;;;25.13;64.63;99972.38;1690788;83;21513;-40
2021/08/28 09:48:28;;;;;;;10.98;7.67;;;;;;;25.16;63.36;99975.73;1669312;84;21043;-40
2021/08/28 09:50:57;;;;;;;12.03;8.63;;;;;;;25.18;62.55;99969.78;1733172;81;22144;-40
2021/08/28 09:53:29;;;;;;;9.43;7.92;;;;;;;25.33;64.38;99973.73;1719125;81;21076;-38
2021/08/28 09:56:01;;;;;;;9.43;7.95;;;;;;;25.45;62.84;99968.89;1702738;82;21592;-38
2021/08/28 09:58:33;;;;;;;8.78;7.60;;;;;;;25.63;64.01;99972.19;1729165;80;21616;-38
2021/08/28 10:01:03;;;;;;;8.73;7.83;;;;;;;25.80;61.88;99971.91;1722524;82;21100;-39
2021/08/28 10:03:31;;;;;;;9.45;8.25;;;;;;;25.85;61.43;99974.28;1718058;81;21588;-34
2021/08/28 10:05:58;;;;;;;14.30;8.75;;;;;;;25.85;61.81;99975.13;1721262;81;22064;-33
2021/08/28 10:08:26;;;;;;;11.55;8.88;;;;;;;25.94;61.79;99983.89;1744888;81;21639;-33
2021/08/28 10:10:53;;;;;;;10.00;7.78;;;;;;;26.09;60.81;99976.63;1746863;81;21061;-39
2021/08/28 10:13:24;;;;;;;9.23;7.37;;;;;;;26.21;61.03;99976.27;1746619;80;21045;-41
2021/08/28 10:15:50;;;;;;;14.25;7.95;;;;;;;26.21;61.30;99973.58;1734880;81;21049;-40
2021/08/28 10:18:18;;;;;;;13.28;8.68;;;;;;;26.21;60.89;99970.90;1717368;82;21131;-33
2021/08/28 10:20:44;;;;;;;13.45;8.70;;;;;;;26.26;60.79;99984.81;1717453;82;21029;-33
2021/08/28 10:23:11;;;;;;;8.63;7.70;;;;;;;26.37;60.40;99981.38;1722897;81;21147;-40
2021/08/28 10:25:40;;;;;;;12.65;8.90;;;;;;;26.48;60.82;99975.66;1721884;82;21088;-34
2021/08/28 10:28:07;;;;;;;11.35;8.88;;;;;;;26.40;59.51;99983.38;1752214;80;21573;-33
2021/08/28 10:30:34;;;;;;;12.60;8.83;;;;;;;26.19;60.01;99982.19;1732358;82;21477;-34
2021/08/28 10:33:01;;;;;;;9.90;8.83;;;;;;;26.11;60.35;99980.05;1732650;81;21068;-33
2021/08/28 10:35:29;;;;;;;10.68;9.13;;;;;;;26.09;61.24;99973.06;1718618;82;21088;-34
2021/08/28 10:37:55;;;;;;;9.30;8.25;;;;;;;26.04;61.09;99987.30;1723837;81;21152;-39
2021/08/28 10:40:30;;;;;;;11.00;7.80;;;;;;;26.30;60.73;99993.02;1719993;82;21469;-39
2021/08/28 10:43:05;;;;;;;11.20;7.70;;;;;;;26.63;59.31;99999.22;1710632;83;21466;-33
2021/08/28 10:45:38;;;;;;;9.70;8.45;;;;;;;27.10;58.43;99992.75;1724133;82;21061;-40
2021/08/28 10:48:23;;;;;;;12.35;7.65;;;;;;;27.46;57.10;99989.16;1729180;80;21064;-40
2021/08/28 10:50:53;;;;;;;8.35;7.55;;;;;;;27.99;57.58;99984.25;1727859;81;21044;-40
2021/08/28 10:53:20;;;;;;;12.45;7.28;;;;;;;28.50;54.79;99991.94;1744104;80;21064;-40
2021/08/28 10:55:48;;;;;;;12.05;7.80;;;;;;;28.89;52.20;99987.89;1675360;81;20973;-33
2021/08/28 10:58:21;;;;;;;8.65;7.75;;;;;;;28.82;52.50;99986.19;1735303;81;21061;-40
2021/08/28 11:00:53;;;;;;;9.98;8.05;;;;;;;29.05;51.98;99993.78;1737060;81;21108;-39
2021/08/28 11:03:35;;;;;;;10.98;7.72;;;;;;;29.20;51.47;99998.88;1732025;81;21104;-37
2021/08/28 11:06:19;;;;;;;11.38;7.37;;;;;;;29.28;50.96;99985.62;1726976;81;21112;-38
2021/08/28 11:08:55;;;;;;;11.00;7.17;;;;;;;29.43;49.80;99985.70;1721897;82;21093;-38
2021/08/28 11:11:36;;;;;;;9.78;7.67;;;;;;;29.68;49.74;99984.02;1735696;81;21043;-33
2021/08/28 11:14:06;;;;;;;8.53;7.40;;;;;;;29.71;49.11;99977.53;1754283;81;21146;-32
2021/08/28 11:16:47;;;;;;;8.75;7.85;;;;;;;29.60;49.46;99977.59;1742520;80;21037;-36
2021/08/28 11:19:32;;;;;;;9.05;7.60;;;;;;;29.32;50.01;99975.81;1758235;81;21603;-40
2021/08/28 11:21:58;;;;;;;8.50;7.60;;;;;;;29.01;49.92;99983.38;1734934;81;21091;-38
2021/08/28 11:24:27;;;;;;;11.70;7.70;;;;;;;28.59;51.30;99977.77;1719760;82;21033;-39
2021/08/28 11:26:56;;;;;;;9.78;7.45;;;;;;;28.44;52.03;99981.66;1718345;81;21132;-37
2021/08/28 11:29:26;;;;;;;9.00;7.50;;;;;;;28.50;52.00;99981.17;1719016;83;21040;-32
2021/08/28 11:32:14;;;;;;;7.72;6.75;;;;;;;28.61;51.55;99979.34;1724753;81;21016;-32
2021/08/28 11:34:43;;;;;;;8.13;7.33;;;;;;;28.61;51.78;99975.80;1723479;82;21017;-33
2021/08/28 11:37:35;;;;;;;8.45;7.65;;;;;;;28.39;50.90;99967.72;1696371;82;21058;-33
2021/08/28 11:40:24;;;;;;;7.83;7.07;;;;;;;28.14;51.87;99967.42;1684750;83;21492;-40
2021/08/28 11:42:51;;;;;;;7.92;7.15;;;;;;;27.97;53.07;99970.08;1742859;81;21038;-34
2021/08/28 11:45:18;;;;;;;9.23;7.20;;;;;;;27.74;52.69;99969.16;1720054;81;21127;-33
2021/08/28 11:47:45;;;;;;;12.95;7.70;;;;;;;27.52;53.46;99968.55;1716732;82;21096;-39
2021/08/28 11:50:12;;;;;;;8.18;7.20;;;;;;;27.37;54.50;99965.66;1715545;82;21030;-38
2021/08/28 11:52:38;;;;;;;9.73;8.03;;;;;;;27.23;54.06;99962.67;1712468;81;21040;-40
2021/08/28 11:55:09;;;;;;;8.93;7.87;;;;;;;27.12;55.50;99966.16;1722360;81;21091;-34
2021/08/28 11:57:36;;;;;;;9.13;7.92;;;;;;;27.16;56.04;99961.42;1716096;82;21016;-39
2021/08/28 12:00:06;;;;;;;8.00;7.20;;;;;;;27.19;56.51;99966.06;1727813;82;20960;-33
2021/08/28 12:02:35;;;;;;;14.80;7.97;;;;;;;27.20;55.75;99958.41;1725196;82;21056;-38
2021/08/28 12:05:16;;;;;;;10.28;7.20;;;;;;;27.18;56.19;99963.50;1717146;82;21028;-39
2021/08/28 12:07:42;;;;;;;8.30;7.40;;;;;;;27.14;54.33;99966.06;1717208;83;21518;-34
2021/08/28 12:10:10;;;;;;;8.00;6.62;;;;;;;27.02;55.16;99963.28;1689513;83;21599;-34
2021/08/28 12:12:37;;;;;;;7.12;6.42;;;;;;;26.97;55.13;99953.36;1718842;83;21075;-39
2021/08/28 12:15:07;;;;;;;7.67;6.87;;;;;;;26.99;55.64;99959.46;1723896;83;21056;-33
2021/08/28 12:17:34;;;;;;;8.90;7.12;;;;;;;27.00;54.57;99967.88;1726749;82;21127;-39
2021/08/28 12:20:01;;;;;;;8.75;7.37;;;;;;;26.95;54.68;99963.81;1723272;83;21596;-39
2021/08/28 12:22:28;;;;;;;8.45;6.15;;;;;;;26.86;56.21;99961.34;1702630;83;21056;-40
2021/08/28 12:24:55;;;;;;;7.87;6.78;;;;;;;26.86;55.37;99961.83;1723441;81;21392;-33
2021/08/28 12:27:21;;;;;;;10.78;7.55;;;;;;;26.88;56.11;99960.73;1727245;83;21576;-34
2021/08/28 12:29:52;;;;;;;8.95;6.58;;;;;;;26.95;55.89;99963.33;1693939;84;21418;-34
2021/08/28 12:32:24;;;;;;;9.73;7.10;;;;;;;27.01;56.28;99964.22;1719587;82;21329;-33
2021/08/28 12:34:54;;;;;;;8.20;7.40;;;;;;;27.11;56.26;99966.27;1711240;83;21500;-34
2021/08/28 12:37:25;;;;;;;8.45;6.55;;;;;;;27.15;54.63;99967.28;1711593;83;21667;-33
2021/08/28 12:39:59;;;;;;;7.15;6.35;;;;;;;27.14;54.81;99965.58;1725340;83;21552;-33
2021/08/28 12:42:26;;;;;;;7.92;6.85;;;;;;;27.10;53.95;99967.25;1730191;81;21004;-40
2021/08/28 12:44:56;;;;;;;10.48;6.95;;;;;;;27.04;54.46;99979.27;1693309;82;21884;-33
2021/08/28 12:47:23;;;;;;;7.33;6.58;;;;;;;26.88;54.36;99975.48;1725728;80;21052;-33
2021/08/28 12:49:51;;;;;;;8.05;6.90;;;;;;;26.73;54.68;99973.91;1748847;81;20989;-40
2021/08/28 12:52:18;;;;;;;7.75;6.50;;;;;;;26.68;54.67;99968.89;1746527;80;21041;-34
2021/08/28 12:54:56;;;;;;;13.98;7.05;;;;;;;26.69;55.90;99969.75;1718254;83;21016;-40
2021/08/28 12:57:30;;;;;;;11.20;6.83;;;;;;;26.83;55.30;99976.79;1724049;83;21564;-34
2021/08/28 13:00:08;;;;;;;7.62;6.33;;;;;;;26.92;54.87;99972.97;1727233;83;21009;-40
2021/08/28 13:02:46;;;;;;;10.13;6.78;;;;;;;27.03;54.07;99969.50;1704873;82;21140;-38
2021/08/28 13:05:30;;;;;;;7.12;6.40;;;;;;;27.07;54.34;99973.69;1719812;83;20989;-39
2021/08/28 13:08:01;;;;;;;7.15;6.30;;;;;;;27.07;54.20;99964.78;1718785;82;21151;-33
2021/08/28 13:10:29;;;;;;;7.65;6.25;;;;;;;27.05;53.45;99959.01;1718888;83;21528;-33
2021/08/28 13:13:03;;;;;;;7.33;6.37;;;;;;;27.11;54.04;99960.42;1695556;82;21513;-34
2021/08/28 13:15:40;;;;;;;9.60;6.50;;;;;;;27.21;53.38;99950.72;1720053;83;21089;-38
2021/08/28 13:18:17;;;;;;;7.12;6.05;;;;;;;27.41;53.68;99950.55;1718658;82;21126;-39
2021/08/28 13:20:51;;;;;;;7.17;6.20;;;;;;;27.61;52.42;99950.89;1713187;83;21057;-40
2021/08/28 13:23:29;;;;;;;8.08;6.58;;;;;;;27.73;52.06;99954.87;1711103;83;21065;-32
2021/08/28 13:26:05;;;;;;;10.72;7.17;;;;;;;27.71;52.40;99944.70;1723295;82;21017;-39
2021/08/28 13:28:41;;;;;;;7.00;6.17;;;;;;;27.63;52.47;99947.10;1717042;83;21044;-39
2021/08/28 13:31:19;;;;;;;6.90;6.03;;;;;;;27.57;51.70;99948.42;1717387;82;20993;-32
2021/08/28 13:33:59;;;;;;;6.47;5.85;;;;;;;27.57;52.16;99948.42;1718872;82;21544;-32
2021/08/28 13:36:29;;;;;;;7.70;5.97;;;;;;;27.61;52.78;99948.20;1716956;83;20993;-38
2021/08/28 13:38:57;;;;;;;6.87;5.87;;;;;;;27.72;51.94;99949.13;1717924;83;21017;-32
2021/08/28 13:41:23;;;;;;;7.15;6.15;;;;;;;27.83;51.56;99957.69;1719204;83;21044;-39
2021/08/28 13:43:50;;;;;;;7.53;5.87;;;;;;;27.92;51.41;99950.27;1718737;83;21077;-39
2021/08/28 13:46:17;;;;;;;9.03;5.97;;;;;;;28.03;51.64;99954.81;1683959;84;21040;-39
2021/08/28 13:48:44;;;;;;;6.87;5.80;;;;;;;28.06;49.32;99951.41;1660200;85;21633;-39
2021/08/28 13:51:11;;;;;;;7.78;5.95;;;;;;;28.02;49.06;99950.42;1668719;85;21086;-32
2021/08/28 13:53:37;;;;;;;7.45;5.50;;;;;;;27.95;49.46;99946.47;1676094;85;21585;-32
2021/08/28 13:56:05;;;;;;;5.78;5.28;;;;;;;27.83;49.64;99941.56;1672662;85;21086;-33
2021/08/28 13:58:32;;;;;;;6.67;5.95;;;;;;;27.74;49.93;99944.48;1674940;83;21694;-38
2021/08/28 14:00:59;;;;;;;8.55;5.80;;;;;;;27.58;50.32;99948.79;1681092;85;21590;-32
2021/08/28 14:03:25;;;;;;;6.62;5.33;;;;;;;27.43;51.60;99942.41;1673178;85;21665;-33
2021/08/28 14:05:52;;;;;;;7.78;5.40;;;;;;;27.34;51.45;99951.14;1670092;84;21034;-38
2021/08/28 14:08:18;;;;;;;8.58;5.55;;;;;;;27.31;51.34;99949.06;1684761;84;21134;-33
2021/08/28 14:10:45;;;;;;;6.97;6.00;;;;;;;27.35;51.19;99944.79;1718986;83;21521;-39
2021/08/28 14:13:12;;;;;;;6.97;5.72;;;;;;;27.36;51.53;99945.16;1728072;82;21651;-33
2021/08/28 14:15:40;;;;;;;7.08;5.60;;;;;;;27.49;51.53;99946.82;1724274;81;21494;-40
